Time;durP1;ratioP1;P1;durP2;ratioP2;P2;SDS_P1;SDS_P2;PMS_P1;PMS_P2;Temp;Humidity;BMP_temperature;BMP_pressure;BME280_temperature;BME280_humidity;BME280_pressure;Samples;Min_cycle;Max_cycle;Signal;HPM_P1;HPM_P2
2022/09/28 00:00:16;;;;;;;6.47;4.55;;;;;;;;;;5060082;28;20048;-77
2022/09/28 00:02:42;;;;;;;7.65;3.92;;;;;;;;;;5045024;28;20028;-74
2022/09/28 00:05:07;;;;;;;8.07;4.40;;;;;;;;;;5055068;28;20021;-74
2022/09/28 00:07:33;;;;;;;6.85;3.30;;;;;;;;;;5047954;28;20127;-75
2022/09/28 00:09:58;;;;;;;6.07;2.42;;;;;;;;;;5062625;28;20020;-76
2022/09/28 00:12:24;;;;;;;8.35;2.97;;;;;;;;;;5046232;28;20028;-78
2022/09/28 00:14:50;;;;;;;8.13;3.42;;;;;;;;;;5046355;28;20043;-77
2022/09/28 00:17:15;;;;;;;7.78;3.83;;;;;;;;;;5060418;28;20046;-78
2022/09/28 00:19:42;;;;;;;9.13;6.10;;;;;;;;;;5057617;28;20044;-79
2022/09/28 00:22:08;;;;;;;9.90;6.10;;;;;;;;;;5039778;28;20135;-77
2022/09/28 00:24:33;;;;;;;13.63;6.65;;;;;;;;;;5062178;28;20502;-76
2022/09/28 00:27:00;;;;;;;12.48;5.18;;;;;;;;;;5060168;28;20025;-76
2022/09/28 00:29:32;;;;;;;10.82;5.90;;;;;;;;;;5043498;28;20360;-78
2022/09/28 00:32:01;;;;;;;7.72;5.53;;;;;;;;;;5059696;28;20032;-77
2022/09/28 00:34:27;;;;;;;9.57;5.32;;;;;;;;;;5060118;28;20051;-77
2022/09/28 00:36:52;;;;;;;8.95;4.47;;;;;;;;;;5038298;28;20502;-77
2022/09/28 00:39:18;;;;;;;9.85;6.85;;;;;;;;;;5062645;28;20115;-77
2022/09/28 00:41:43;;;;;;;10.60;9.23;;;;;;;;;;5060955;28;20044;-78
2022/09/28 00:44:21;;;;;;;11.20;10.20;;;;;;;;;;5063550;28;20028;-77
2022/09/28 00:46:47;;;;;;;20.10;8.40;;;;;;;;;;5062547;28;20453;-76
2022/09/28 00:49:14;;;;;;;6.15;5.10;;;;;;;;;;5058864;28;20029;-77
2022/09/28 00:51:41;;;;;;;7.13;3.78;;;;;;;;;;5040258;28;20056;-76
2022/09/28 00:54:06;;;;;;;7.57;4.60;;;;;;;;;;5059570;28;20044;-75
2022/09/28 00:56:34;;;;;;;6.93;4.60;;;;;;;;;;5045413;28;20020;-76
2022/09/28 00:59:00;;;;;;;6.50;3.67;;;;;;;;;;5059336;28;20037;-76
2022/09/28 01:01:26;;;;;;;11.55;4.07;;;;;;;;;;5059124;28;21005;-77
2022/09/28 01:03:52;;;;;;;8.73;6.00;;;;;;;;;;5046278;28;20032;-75
2022/09/28 01:06:22;;;;;;;21.77;10.88;;;;;;;;;;5060297;28;20457;-77
2022/09/28 01:08:49;;;;;;;;;;;;;;;;;;5042801;28;20086;-78
2022/09/28 01:11:14;;;;;;;24.40;13.75;;;;;;;;;;5059309;28;19939;-76
2022/09/28 01:13:40;;;;;;;11.38;6.22;;;;;;;;;;5059841;28;20028;-77
2022/09/28 01:16:18;;;;;;;10.05;4.97;;;;;;;;;;5058824;28;20119;-77
2022/09/28 01:18:52;;;;;;;16.52;11.85;;;;;;;;;;5056819;28;20037;-78
2022/09/28 01:21:19;;;;;;;10.57;6.20;;;;;;;;;;5050173;28;20145;-76
2022/09/28 01:23:44;;;;;;;8.60;4.53;;;;;;;;;;5033036;28;21006;-77
2022/09/28 01:26:28;;;;;;;8.05;4.13;;;;;;;;;;5042616;28;20097;-77
2022/09/28 01:29:04;;;;;;;9.20;4.60;;;;;;;;;;5053920;28;21282;-77
2022/09/28 01:31:31;;;;;;;7.03;4.30;;;;;;;;;;5045062;28;20189;-76
2022/09/28 01:34:03;;;;;;;17.15;8.18;;;;;;;;;;5061153;28;20025;-76
2022/09/28 01:36:33;;;;;;;10.80;5.90;;;;;;;;;;5060474;28;20115;-79
2022/09/28 01:38:58;;;;;;;;;;;;;;;;;;5060950;28;20214;-76
2022/09/28 01:41:25;;;;;;;6.23;3.17;;;;;;;;;;5059716;28;19995;-76
2022/09/28 01:43:53;;;;;;;16.73;11.38;;;;;;;;;;5043582;28;20326;-78
2022/09/28 01:46:20;;;;;;;9.63;6.32;;;;;;;;;;5057250;28;20669;-77
2022/09/28 01:49:01;;;;;;;34.33;22.63;;;;;;;;;;5059708;28;20044;-77
2022/09/28 01:51:29;;;;;;;22.65;14.27;;;;;;;;;;5058346;28;20055;-77
2022/09/28 01:53:57;;;;;;;9.88;6.72;;;;;;;;;;5061444;28;20031;-76
2022/09/28 01:56:38;;;;;;;9.85;5.15;;;;;;;;;;5061714;28;20329;-76
2022/09/28 01:59:15;;;;;;;8.73;3.80;;;;;;;;;;5040208;28;20032;-77
2022/09/28 02:01:44;;;;;;;7.63;4.15;;;;;;;;;;5058696;28;20060;-76
2022/09/28 02:04:22;;;;;;;7.60;5.10;;;;;;;;;;5059464;28;20062;-77
2022/09/28 02:07:06;;;;;;;8.85;5.28;;;;;;;;;;5039853;28;20090;-78
2022/09/28 02:09:37;;;;;;;6.95;3.90;;;;;;;;;;5060453;28;20835;-78
2022/09/28 02:12:07;;;;;;;9.02;3.70;;;;;;;;;;5060808;28;20020;-77
2022/09/28 02:14:33;;;;;;;5.78;3.40;;;;;;;;;;5048801;28;20020;-77
2022/09/28 02:17:00;;;;;;;6.95;3.33;;;;;;;;;;5050512;28;20035;-76
2022/09/28 02:19:26;;;;;;;5.18;3.25;;;;;;;;;;5047344;28;20039;-77
2022/09/28 02:21:54;;;;;;;7.45;3.70;;;;;;;;;;5039855;28;20202;-77
2022/09/28 02:24:30;;;;;;;5.10;4.13;;;;;;;;;;5060234;28;20017;-77
2022/09/28 02:26:58;;;;;;;5.80;3.55;;;;;;;;;;5023096;28;20098;-77
2022/09/28 02:29:23;;;;;;;6.90;3.00;;;;;;;;;;5058565;28;20032;-77
2022/09/28 02:31:49;;;;;;;4.55;2.42;;;;;;;;;;5055106;28;20573;-79
2022/09/28 02:34:15;;;;;;;7.38;3.55;;;;;;;;;;5041338;28;20021;-76
2022/09/28 02:36:40;;;;;;;8.10;3.22;;;;;;;;;;5059612;28;20013;-77
2022/09/28 02:39:11;;;;;;;22.73;14.93;;;;;;;;;;5059340;28;20056;-77
2022/09/28 02:41:46;;;;;;;13.25;10.05;;;;;;;;;;5060435;28;20024;-77
2022/09/28 02:44:14;;;;;;;17.88;16.05;;;;;;;;;;5060287;28;20082;-77
2022/09/28 02:46:56;;;;;;;10.88;7.75;;;;;;;;;;5058743;28;20130;-77
2022/09/28 02:49:36;;;;;;;12.45;9.18;;;;;;;;;;5036589;28;20426;-77
2022/09/28 02:52:05;;;;;;;18.05;5.68;;;;;;;;;;5057829;28;20874;-77
2022/09/28 02:54:39;;;;;;;7.80;3.50;;;;;;;;;;5059662;28;20040;-77
2022/09/28 02:57:23;;;;;;;4.70;2.63;;;;;;;;;;5051482;28;20028;-77
2022/09/28 03:00:01;;;;;;;6.00;2.65;;;;;;;;;;5048760;28;20028;-78
2022/09/28 03:02:45;;;;;;;6.47;2.80;;;;;;;;;;5056517;28;20067;-78
2022/09/28 03:05:13;;;;;;;5.15;3.00;;;;;;;;;;5060580;28;20024;-77
2022/09/28 03:07:54;;;;;;;5.68;2.78;;;;;;;;;;5059832;28;20028;-77
2022/09/28 03:10:38;;;;;;;4.38;2.65;;;;;;;;;;5058124;28;20426;-77
2022/09/28 03:13:04;;;;;;;6.47;2.65;;;;;;;;;;5055725;28;20131;-76
2022/09/28 03:15:31;;;;;;;3.30;2.22;;;;;;;;;;5057182;28;20029;-77
2022/09/28 03:17:56;;;;;;;8.68;3.15;;;;;;;;;;5058941;28;20048;-76
2022/09/28 03:20:22;;;;;;;5.93;2.88;;;;;;;;;;5058654;28;20056;-78
2022/09/28 03:22:48;;;;;;;7.45;2.60;;;;;;;;;;5056068;28;20124;-77
2022/09/28 03:25:14;;;;;;;3.65;2.58;;;;;;;;;;5050394;28;20082;-76
2022/09/28 03:27:40;;;;;;;4.93;2.10;;;;;;;;;;5045135;28;20031;-81
2022/09/28 03:30:05;;;;;;;2.92;1.85;;;;;;;;;;5055412;28;20041;-77
2022/09/28 03:32:31;;;;;;;3.13;2.00;;;;;;;;;;5059194;28;20031;-76
2022/09/28 03:34:56;;;;;;;7.35;4.93;;;;;;;;;;5056029;28;20397;-79
2022/09/28 03:37:21;;;;;;;10.10;5.18;;;;;;;;;;5057165;28;20017;-77
2022/09/28 03:39:47;;;;;;;6.30;4.85;;;;;;;;;;5060578;28;20616;-76
2022/09/28 03:42:12;;;;;;;8.95;4.13;;;;;;;;;;5059017;28;20028;-77
2022/09/28 03:44:37;;;;;;;6.80;3.20;;;;;;;;;;5057795;28;20451;-78
2022/09/28 03:47:03;;;;;;;5.60;2.67;;;;;;;;;;5037458;28;20021;-77
2022/09/28 03:49:28;;;;;;;15.05;6.88;;;;;;;;;;5057067;28;20032;-77
2022/09/28 03:51:54;;;;;;;17.88;9.55;;;;;;;;;;5057053;28;20032;-77
2022/09/28 03:54:19;;;;;;;21.13;8.20;;;;;;;;;;5056751;28;20032;-78
2022/09/28 03:56:44;;;;;;;16.70;9.20;;;;;;;;;;5059316;28;20021;-78
2022/09/28 03:59:10;;;;;;;20.10;10.90;;;;;;;;;;5058929;28;20044;-77
2022/09/28 04:01:35;;;;;;;31.05;14.18;;;;;;;;;;5059453;28;20031;-76
2022/09/28 04:04:00;;;;;;;28.15;13.60;;;;;;;;;;5057914;28;20025;-76
2022/09/28 04:06:26;;;;;;;25.98;12.20;;;;;;;;;;5039816;28;20131;-77
2022/09/28 04:08:51;;;;;;;13.82;7.32;;;;;;;;;;5042358;28;20029;-77
2022/09/28 04:11:17;;;;;;;15.02;7.13;;;;;;;;;;5035611;28;20106;-77
2022/09/28 04:13:42;;;;;;;15.13;9.02;;;;;;;;;;5039815;28;20093;-77
2022/09/28 04:16:09;;;;;;;10.38;7.07;;;;;;;;;;5041151;28;20037;-77
2022/09/28 04:18:34;;;;;;;8.88;4.60;;;;;;;;;;5039250;28;20048;-78
2022/09/28 04:21:02;;;;;;;8.43;4.45;;;;;;;;;;5037809;28;20024;-77
2022/09/28 04:23:28;;;;;;;10.05;5.00;;;;;;;;;;5057971;28;20035;-77
2022/09/28 04:25:53;;;;;;;7.18;4.60;;;;;;;;;;5058569;28;20417;-78
2022/09/28 04:31:02;;;;;;;9.43;5.80;;;;;;;;;;5043570;28;20044;-77
2022/09/28 04:33:28;;;;;;;19.80;10.77;;;;;;;;;;5039237;28;20122;-77
2022/09/28 04:35:53;;;;;;;9.93;6.75;;;;;;;;;;5058751;28;21219;-77
2022/09/28 04:38:19;;;;;;;8.95;5.07;;;;;;;;;;5055951;28;20050;-77
2022/09/28 04:40:44;;;;;;;13.05;7.53;;;;;;;;;;5042029;28;20406;-76
2022/09/28 04:43:09;;;;;;;14.32;9.60;;;;;;;;;;5048644;28;20036;-76
2022/09/28 04:45:35;;;;;;;16.55;13.02;;;;;;;;;;5040662;28;20376;-78
2022/09/28 04:48:00;;;;;;;38.00;29.90;;;;;;;;;;5042478;28;20043;-77
2022/09/28 04:50:25;;;;;;;35.70;30.33;;;;;;;;;;5059285;28;20032;-76
2022/09/28 04:52:51;;;;;;;35.92;29.30;;;;;;;;;;5057361;28;20454;-74
2022/09/28 04:55:16;;;;;;;50.22;42.17;;;;;;;;;;5060401;28;20028;-78
2022/09/28 04:57:42;;;;;;;40.33;35.97;;;;;;;;;;5060556;28;20029;-77
2022/09/28 05:00:08;;;;;;;35.95;31.08;;;;;;;;;;5058776;28;20031;-74
2022/09/28 05:02:34;;;;;;;71.10;63.58;;;;;;;;;;5058531;28;20389;-76
2022/09/28 05:04:59;;;;;;;24.52;21.58;;;;;;;;;;5060915;28;20021;-76
2022/09/28 05:07:25;;;;;;;9.65;7.82;;;;;;;;;;5059514;28;20389;-77
2022/09/28 05:09:51;;;;;;;9.95;5.95;;;;;;;;;;5038475;28;20028;-76
2022/09/28 05:12:16;;;;;;;6.65;5.25;;;;;;;;;;5046695;28;20093;-75
2022/09/28 05:14:42;;;;;;;12.73;6.45;;;;;;;;;;5059109;28;20032;-74
2022/09/28 05:17:08;;;;;;;12.93;5.70;;;;;;;;;;5059220;28;20044;-76
2022/09/28 05:19:34;;;;;;;10.10;7.38;;;;;;;;;;5044731;28;20040;-73
2022/09/28 05:22:03;;;;;;;14.52;8.63;;;;;;;;;;5052435;28;20021;-74
2022/09/28 05:24:29;;;;;;;11.82;8.73;;;;;;;;;;5059784;28;20401;-72
2022/09/28 05:26:54;;;;;;;11.85;8.05;;;;;;;;;;5041228;28;20481;-77
2022/09/28 05:29:19;;;;;;;15.18;9.50;;;;;;;;;;5061060;28;20042;-76
2022/09/28 05:31:45;;;;;;;16.08;10.90;;;;;;;;;;5052309;28;20036;-77
2022/09/28 05:34:10;;;;;;;17.10;10.57;;;;;;;;;;5043423;28;20204;-76
2022/09/28 05:36:36;;;;;;;16.00;10.90;;;;;;;;;;5044483;28;20118;-77
2022/09/28 05:39:02;;;;;;;11.88;8.13;;;;;;;;;;5061301;28;20032;-76
2022/09/28 05:41:28;;;;;;;21.08;14.60;;;;;;;;;;5055523;28;20028;-77
2022/09/28 05:43:53;;;;;;;28.92;19.55;;;;;;;;;;5039919;28;20078;-78
2022/09/28 05:46:20;;;;;;;15.68;9.68;;;;;;;;;;5032456;28;20484;-76
2022/09/28 05:48:46;;;;;;;11.38;7.10;;;;;;;;;;5035349;28;20040;-75
2022/09/28 05:51:11;;;;;;;16.17;12.20;;;;;;;;;;5037928;28;20093;-78
2022/09/28 05:53:36;;;;;;;24.25;17.45;;;;;;;;;;5039152;28;20036;-76
2022/09/28 05:56:02;;;;;;;22.92;17.15;;;;;;;;;;5038364;28;20024;-76
2022/09/28 05:58:27;;;;;;;11.57;7.82;;;;;;;;;;5036684;28;20052;-77
2022/09/28 06:00:56;;;;;;;7.88;5.10;;;;;;;;;;5039818;28;20029;-75
2022/09/28 06:03:21;;;;;;;9.68;4.43;;;;;;;;;;5033557;28;20021;-74
2022/09/28 06:05:47;;;;;;;6.32;3.83;;;;;;;;;;5037760;28;20026;-78
2022/09/28 06:08:12;;;;;;;7.30;3.67;;;;;;;;;;5035713;28;20048;-75
2022/09/28 06:10:38;;;;;;;7.32;3.83;;;;;;;;;;5032905;28;20363;-76
2022/09/28 06:13:03;;;;;;;22.40;13.05;;;;;;;;;;5033331;28;20103;-75
2022/09/28 06:15:30;;;;;;;24.67;14.15;;;;;;;;;;5035152;28;20074;-73
2022/09/28 06:17:59;;;;;;;24.40;14.05;;;;;;;;;;5035859;28;20121;-74
2022/09/28 06:20:28;;;;;;;26.38;13.98;;;;;;;;;;5037967;28;20145;-76
2022/09/28 06:22:54;;;;;;;29.40;16.52;;;;;;;;;;5050921;28;20039;-76
2022/09/28 06:25:20;;;;;;;17.58;11.27;;;;;;;;;;5058493;28;20016;-76
2022/09/28 06:28:01;;;;;;;16.42;11.63;;;;;;;;;;5061430;28;20020;-76
2022/09/28 06:30:27;;;;;;;20.83;13.30;;;;;;;;;;5059836;28;20036;-76
2022/09/28 06:32:54;;;;;;;140.93;77.82;;;;;;;;;;5058869;28;20048;-76
2022/09/28 06:35:20;;;;;;;83.95;49.03;;;;;;;;;;5061634;28;20016;-76
2022/09/28 06:37:45;;;;;;;44.13;26.80;;;;;;;;;;5060695;28;20039;-79
2022/09/28 06:40:11;;;;;;;22.48;12.88;;;;;;;;;;5037177;28;20024;-76
2022/09/28 06:42:36;;;;;;;16.35;8.65;;;;;;;;;;5058114;28;20029;-75
2022/09/28 06:45:01;;;;;;;20.10;13.45;;;;;;;;;;5056934;28;20057;-75
2022/09/28 06:47:27;;;;;;;14.60;9.70;;;;;;;;;;5058473;28;20028;-78
2022/09/28 06:49:54;;;;;;;14.48;10.93;;;;;;;;;;5058184;28;20036;-78
2022/09/28 06:52:19;;;;;;;22.13;15.00;;;;;;;;;;5050608;28;20033;-74
2022/09/28 06:54:46;;;;;;;18.48;16.58;;;;;;;;;;5035245;28;20040;-76
2022/09/28 06:57:11;;;;;;;10.73;7.07;;;;;;;;;;5035986;28;20082;-77
2022/09/28 06:59:37;;;;;;;10.35;5.38;;;;;;;;;;5049984;28;20029;-78
2022/09/28 07:02:02;;;;;;;6.75;4.45;;;;;;;;;;5060761;28;20020;-78
2022/09/28 07:04:29;;;;;;;7.03;4.05;;;;;;;;;;5058185;28;20025;-77
2022/09/28 07:06:55;;;;;;;7.97;4.70;;;;;;;;;;5059082;28;20419;-76
2022/09/28 07:09:20;;;;;;;8.85;4.55;;;;;;;;;;5058455;28;20028;-75
2022/09/28 07:11:46;;;;;;;7.88;3.65;;;;;;;;;;5060794;28;20440;-77
2022/09/28 07:14:11;;;;;;;9.35;5.70;;;;;;;;;;5058906;28;20051;-75
2022/09/28 07:16:37;;;;;;;8.68;3.92;;;;;;;;;;5049825;28;20103;-76
2022/09/28 07:19:03;;;;;;;9.13;4.65;;;;;;;;;;5049752;28;20036;-74
2022/09/28 07:21:28;;;;;;;24.17;15.45;;;;;;;;;;5056595;28;20028;-76
2022/09/28 07:23:53;;;;;;;11.82;10.63;;;;;;;;;;5058848;28;20036;-77
2022/09/28 07:26:19;;;;;;;9.57;6.03;;;;;;;;;;5058614;28;20021;-77
2022/09/28 07:28:44;;;;;;;9.38;4.68;;;;;;;;;;5058957;28;20123;-75
2022/09/28 07:31:10;;;;;;;9.02;5.20;;;;;;;;;;5057930;28;20024;-77
2022/09/28 07:33:36;;;;;;;7.82;4.88;;;;;;;;;;5038543;28;20021;-77
2022/09/28 07:36:05;;;;;;;13.15;11.77;;;;;;;;;;5040685;28;20455;-76
2022/09/28 07:38:31;;;;;;;9.55;6.25;;;;;;;;;;5039411;28;20385;-77
2022/09/28 07:41:12;;;;;;;10.20;6.45;;;;;;;;;;5056262;28;20033;-76
2022/09/28 07:43:41;;;;;;;24.15;14.63;;;;;;;;;;5059544;28;20104;-75
2022/09/28 07:46:13;;;;;;;14.73;8.98;;;;;;;;;;5051788;28;20052;-78
2022/09/28 07:48:39;;;;;;;14.98;10.75;;;;;;;;;;5042419;28;20043;-77
2022/09/28 07:51:04;;;;;;;82.22;71.75;;;;;;;;;;5058811;28;20173;-75
2022/09/28 07:53:30;;;;;;;33.00;29.48;;;;;;;;;;5060680;28;20500;-75
2022/09/28 07:56:06;;;;;;;9.32;6.32;;;;;;;;;;5037994;28;20067;-76
2022/09/28 07:58:32;;;;;;;18.60;14.55;;;;;;;;;;5047563;28;20028;-75
2022/09/28 08:00:59;;;;;;;12.15;9.48;;;;;;;;;;5035307;28;20040;-74
2022/09/28 08:03:25;;;;;;;18.45;13.88;;;;;;;;;;5057810;28;20033;-77
2022/09/28 08:05:50;;;;;;;9.75;6.03;;;;;;;;;;5057758;28;20340;-75
2022/09/28 08:08:15;;;;;;;9.43;5.72;;;;;;;;;;5055675;28;20212;-76
2022/09/28 08:10:41;;;;;;;14.50;8.63;;;;;;;;;;5049858;28;20029;-78
2022/09/28 08:13:06;;;;;;;14.57;8.77;;;;;;;;;;5046380;28;20320;-75
2022/09/28 08:15:37;;;;;;;12.00;7.35;;;;;;;;;;5048356;28;20059;-75
2022/09/28 08:18:03;;;;;;;19.33;11.00;;;;;;;;;;5062043;28;20154;-74
2022/09/28 08:23:12;;;;;;;22.23;13.80;;;;;;;;;;5062617;28;20074;-77
2022/09/28 08:25:38;;;;;;;15.27;8.02;;;;;;;;;;5063484;28;20079;-75
2022/09/28 08:28:05;;;;;;;8.52;6.50;;;;;;;;;;5037843;28;20124;-78
2022/09/28 08:30:32;;;;;;;9.77;5.93;;;;;;;;;;5037075;28;20032;-76
2022/09/28 08:32:57;;;;;;;13.13;8.10;;;;;;;;;;5056156;28;20400;-76
2022/09/28 08:35:24;;;;;;;19.25;14.40;;;;;;;;;;5064770;28;20028;-76
2022/09/28 08:37:53;;;;;;;15.15;10.70;;;;;;;;;;5051420;28;20025;-76
2022/09/28 08:40:25;;;;;;;12.13;6.37;;;;;;;;;;5049264;28;20021;-76
2022/09/28 08:42:56;;;;;;;5.15;2.45;;;;;;;;;;5037181;28;20019;-76
2022/09/28 08:45:26;;;;;;;17.15;10.35;;;;;;;;;;5039304;28;20044;-77
2022/09/28 08:50:44;;;;;;;16.25;7.47;;;;;;;;;;5040674;28;20578;-76
2022/09/28 08:53:37;;;;;;;88.72;26.15;;;;;;;;;;5040306;28;20451;-77
2022/09/28 08:56:05;;;;;;;5.88;3.17;;;;;;;;;;5004948;28;20041;-75
2022/09/28 08:58:32;;;;;;;24.52;19.23;;;;;;;;;;5005095;28;20692;-75
2022/09/28 09:00:59;;;;;;;5.90;2.95;;;;;;;;;;5004893;28;20064;-78
2022/09/28 09:03:30;;;;;;;7.32;2.95;;;;;;;;;;5005173;28;20148;-74
2022/09/28 09:06:04;;;;;;;6.28;4.10;;;;;;;;;;5006230;28;20570;-77
2022/09/28 09:08:38;;;;;;;4.43;2.08;;;;;;;;;;5004456;28;20037;-76
2022/09/28 09:11:06;;;;;;;11.15;7.88;;;;;;;;;;5005011;28;20044;-76
2022/09/28 09:13:44;;;;;;;10.98;6.85;;;;;;;;;;5015814;28;20248;-75
2022/09/28 09:16:13;;;;;;;8.68;3.83;;;;;;;;;;5019207;28;20116;-76
2022/09/28 09:18:53;;;;;;;10.13;7.55;;;;;;;;;;5019658;28;20029;-79
2022/09/28 09:21:24;;;;;;;5.88;4.07;;;;;;;;;;5017919;28;20153;-75
2022/09/28 09:23:54;;;;;;;10.30;4.03;;;;;;;;;;5020710;28;20048;-76
2022/09/28 09:26:25;;;;;;;5.78;2.65;;;;;;;;;;5019135;28;20034;-75
2022/09/28 09:28:54;;;;;;;4.57;1.92;;;;;;;;;;5017806;28;20106;-75
2022/09/28 09:31:25;;;;;;;10.48;3.20;;;;;;;;;;5012648;28;20080;-75
2022/09/28 09:33:52;;;;;;;6.47;2.33;;;;;;;;;;5033638;28;20090;-77
2022/09/28 09:36:30;;;;;;;4.85;2.20;;;;;;;;;;5037700;28;20025;-77
2022/09/28 09:38:58;;;;;;;4.72;1.58;;;;;;;;;;5036988;28;20040;-75
2022/09/28 09:41:23;;;;;;;2.85;1.60;;;;;;;;;;5036557;28;20036;-75
2022/09/28 09:44:01;;;;;;;3.25;1.40;;;;;;;;;;5036686;28;20036;-76
2022/09/28 09:46:32;;;;;;;3.35;1.40;;;;;;;;;;5000342;28;20457;-75
2022/09/28 09:49:10;;;;;;;3.85;1.95;;;;;;;;;;5020371;28;20091;-76
2022/09/28 09:51:35;;;;;;;5.78;2.55;;;;;;;;;;5021702;28;20030;-74
2022/09/28 09:54:02;;;;;;;6.63;2.53;;;;;;;;;;5020968;28;20083;-75
2022/09/28 09:56:39;;;;;;;4.53;1.40;;;;;;;;;;5021564;28;20048;-76
2022/09/28 09:59:07;;;;;;;6.00;2.45;;;;;;;;;;5021075;28;20040;-79
2022/09/28 10:01:37;;;;;;;3.20;1.52;;;;;;;;;;5023590;28;20048;-77
2022/09/28 10:04:05;;;;;;;3.38;1.40;;;;;;;;;;5021297;28;20082;-76
2022/09/28 10:06:34;;;;;;;2.97;1.77;;;;;;;;;;5020703;28;20021;-74
2022/09/28 10:09:04;;;;;;;2.38;1.40;;;;;;;;;;5021215;28;20033;-78
2022/09/28 10:11:35;;;;;;;2.83;2.45;;;;;;;;;;5021832;28;20105;-74
2022/09/28 10:14:01;;;;;;;2.70;1.27;;;;;;;;;;5004960;28;20088;-74
2022/09/28 10:16:26;;;;;;;2.78;1.48;;;;;;;;;;4998690;28;20407;-74
2022/09/28 10:18:51;;;;;;;10.25;6.60;;;;;;;;;;5012971;28;20087;-74
2022/09/28 10:21:19;;;;;;;2.72;2.03;;;;;;;;;;4998350;28;20033;-76
2022/09/28 10:23:46;;;;;;;3.45;2.40;;;;;;;;;;4997539;28;20693;-76
2022/09/28 10:26:14;;;;;;;4.25;2.08;;;;;;;;;;4999573;28;20346;-76
2022/09/28 10:28:39;;;;;;;7.53;5.50;;;;;;;;;;4999001;28;20029;-76
2022/09/28 10:31:23;;;;;;;7.10;3.40;;;;;;;;;;5000286;28;20030;-76
2022/09/28 10:33:52;;;;;;;4.00;2.63;;;;;;;;;;4997926;28;20975;-79
2022/09/28 10:36:17;;;;;;;8.05;4.80;;;;;;;;;;4997632;28;20032;-77
2022/09/28 10:38:46;;;;;;;3.63;1.73;;;;;;;;;;4998803;28;20360;-76
2022/09/28 10:41:12;;;;;;;27.88;18.90;;;;;;;;;;4999698;28;20018;-76
2022/09/28 10:43:44;;;;;;;10.98;6.93;;;;;;;;;;4997343;28;20091;-77
2022/09/28 10:46:19;;;;;;;8.48;4.78;;;;;;;;;;5017162;28;20045;-76
2022/09/28 10:48:50;;;;;;;14.10;10.32;;;;;;;;;;5017516;28;20051;-76
2022/09/28 10:51:16;;;;;;;16.58;12.35;;;;;;;;;;5017943;28;20464;-76
2022/09/28 10:53:41;;;;;;;3.58;2.33;;;;;;;;;;5033594;28;20032;-76
2022/09/28 10:56:27;;;;;;;7.38;2.42;;;;;;;;;;5022528;28;20033;-76
2022/09/28 10:58:52;;;;;;;2.03;1.70;;;;;;;;;;5021499;28;20037;-78
2022/09/28 11:01:27;;;;;;;7.20;2.13;;;;;;;;;;5018414;28;20033;-78
2022/09/28 11:03:57;;;;;;;4.75;1.40;;;;;;;;;;5018054;28;20033;-76
2022/09/28 11:06:27;;;;;;;2.97;1.77;;;;;;;;;;5024464;28;20025;-77
2022/09/28 11:08:53;;;;;;;3.47;1.40;;;;;;;;;;5033187;28;20460;-77
2022/09/28 11:11:19;;;;;;;3.72;1.50;;;;;;;;;;5019775;28;20045;-77
2022/09/28 11:13:46;;;;;;;2.15;1.40;;;;;;;;;;5037645;28;20037;-77
2022/09/28 11:16:38;;;;;;;4.28;1.50;;;;;;;;;;5040062;28;20112;-77
2022/09/28 11:19:19;;;;;;;4.97;2.17;;;;;;;;;;4983224;28;20050;-76
2022/09/28 11:21:45;;;;;;;2.75;1.98;;;;;;;;;;4982851;28;20038;-76
2022/09/28 11:24:16;;;;;;;3.25;1.98;;;;;;;;;;4979640;28;20038;-78
2022/09/28 11:26:42;;;;;;;5.55;1.85;;;;;;;;;;4979993;28;20200;-77
2022/09/28 11:29:19;;;;;;;2.50;1.75;;;;;;;;;;4976445;28;20037;-77
2022/09/28 11:31:45;;;;;;;2.25;1.42;;;;;;;;;;4981185;28;20126;-77
2022/09/28 11:34:25;;;;;;;3.45;1.95;;;;;;;;;;4973382;28;20133;-78
2022/09/28 11:37:11;;;;;;;5.78;2.53;;;;;;;;;;4968979;28;20046;-76
2022/09/28 11:39:55;;;;;;;3.95;2.35;;;;;;;;;;4969215;28;20037;-76
2022/09/28 11:42:23;;;;;;;3.38;2.38;;;;;;;;;;4969354;28;20606;-79
2022/09/28 11:44:54;;;;;;;4.80;2.85;;;;;;;;;;4969444;28;20123;-77
2022/09/28 11:47:31;;;;;;;3.88;1.88;;;;;;;;;;4980249;28;20041;-76
2022/09/28 11:50:06;;;;;;;8.27;4.78;;;;;;;;;;4984637;28;20088;-75
2022/09/28 11:52:51;;;;;;;6.15;3.00;;;;;;;;;;4984800;28;20069;-77
2022/09/28 11:55:20;;;;;;;3.42;2.00;;;;;;;;;;4991071;28;20515;-75
2022/09/28 11:57:47;;;;;;;3.47;2.30;;;;;;;;;;5042115;28;20112;-76
2022/09/28 12:00:14;;;;;;;4.35;2.00;;;;;;;;;;5044031;28;20428;-79
2022/09/28 12:02:52;;;;;;;4.05;1.20;;;;;;;;;;5041781;28;20424;-77
2022/09/28 12:05:22;;;;;;;3.15;1.70;;;;;;;;;;5029166;28;20025;-76
2022/09/28 12:08:00;;;;;;;1.90;1.40;;;;;;;;;;5021848;28;20390;-76
2022/09/28 12:10:32;;;;;;;3.75;1.40;;;;;;;;;;5021165;28;20465;-76
2022/09/28 12:13:00;;;;;;;4.63;3.08;;;;;;;;;;5031312;28;20075;-77
2022/09/28 12:15:46;;;;;;;3.88;2.22;;;;;;;;;;5031211;28;20162;-74
2022/09/28 12:18:44;;;;;;;3.55;2.50;;;;;;;;;;5042940;28;20029;-77
2022/09/28 12:21:15;;;;;;;5.70;3.15;;;;;;;;;;5026708;28;20515;-77
2022/09/28 12:23:42;;;;;;;6.72;4.68;;;;;;;;;;5041889;28;20397;-77
2022/09/28 12:26:26;;;;;;;4.82;4.20;;;;;;;;;;5041090;28;20111;-76
2022/09/28 12:28:55;;;;;;;4.15;2.65;;;;;;;;;;5026422;28;20493;-77
2022/09/28 12:31:25;;;;;;;1.83;1.20;;;;;;;;;;5044387;28;20071;-77
2022/09/28 12:33:51;;;;;;;3.08;2.10;;;;;;;;;;5043429;28;20032;-77
2022/09/28 12:36:19;;;;;;;4.80;1.80;;;;;;;;;;5043837;28;20697;-77
2022/09/28 12:38:44;;;;;;;4.03;2.20;;;;;;;;;;5044333;28;20418;-75
2022/09/28 12:41:28;;;;;;;4.47;2.08;;;;;;;;;;5033472;28;20026;-78
2022/09/28 12:44:05;;;;;;;1.77;1.30;;;;;;;;;;5018700;28;20028;-78
2022/09/28 12:46:34;;;;;;;2.13;1.15;;;;;;;;;;5022741;28;20119;-77
2022/09/28 12:49:12;;;;;;;3.78;1.95;;;;;;;;;;5017675;28;20071;-77
2022/09/28 12:51:43;;;;;;;3.20;1.83;;;;;;;;;;5020574;28;20039;-77
2022/09/28 12:54:27;;;;;;;2.63;1.50;;;;;;;;;;5022400;28;20104;-76
2022/09/28 12:56:55;;;;;;;3.28;1.90;;;;;;;;;;5020706;28;20456;-77
2022/09/28 12:59:20;;;;;;;11.90;9.25;;;;;;;;;;5018089;28;20041;-75
2022/09/28 13:01:59;;;;;;;22.30;15.57;;;;;;;;;;5038294;28;20037;-75
2022/09/28 13:04:46;;;;;;;4.40;2.55;;;;;;;;;;5024653;28;20490;-76
2022/09/28 13:07:37;;;;;;;2.58;1.67;;;;;;;;;;4999677;28;20039;-76
2022/09/28 13:10:15;;;;;;;6.65;2.25;;;;;;;;;;4981189;28;20391;-78
2022/09/28 13:12:43;;;;;;;3.88;1.45;;;;;;;;;;4981081;28;20521;-77
2022/09/28 13:15:11;;;;;;;2.47;1.52;;;;;;;;;;4982412;28;20042;-76
2022/09/28 13:17:37;;;;;;;6.82;2.40;;;;;;;;;;4983218;28;20041;-76
2022/09/28 13:20:11;;;;;;;7.72;5.13;;;;;;;;;;4981360;28;20030;-75
2022/09/28 13:22:48;;;;;;;5.90;3.30;;;;;;;;;;4982201;28;20030;-75
2022/09/28 13:25:15;;;;;;;6.82;3.35;;;;;;;;;;4982671;28;20030;-76
2022/09/28 13:27:45;;;;;;;8.07;3.15;;;;;;;;;;4982823;28;20033;-75
2022/09/28 13:30:13;;;;;;;57.28;39.25;;;;;;;;;;4980344;28;20049;-77
2022/09/28 13:32:39;;;;;;;76.22;52.35;;;;;;;;;;4979955;28;20045;-77
2022/09/28 13:35:05;;;;;;;24.20;16.02;;;;;;;;;;4981134;28;20035;-78
2022/09/28 13:37:33;;;;;;;26.42;19.17;;;;;;;;;;4982699;28;20153;-76
2022/09/28 13:40:04;;;;;;;10.52;8.43;;;;;;;;;;4968596;28;20398;-75
2022/09/28 13:42:39;;;;;;;5.03;3.15;;;;;;;;;;4976821;28;20041;-78
2022/09/28 13:45:10;;;;;;;5.63;3.13;;;;;;;;;;4989715;28;20046;-76
2022/09/28 13:47:54;;;;;;;3.47;3.17;;;;;;;;;;5035323;28;20059;-77
2022/09/28 13:50:43;;;;;;;14.60;9.88;;;;;;;;;;5032276;28;20425;-78
2022/09/28 13:53:18;;;;;;;4.88;4.38;;;;;;;;;;5020958;28;20149;-76
2022/09/28 13:55:49;;;;;;;4.47;3.10;;;;;;;;;;5041038;28;20033;-77
2022/09/28 13:58:26;;;;;;;4.00;2.60;;;;;;;;;;5040453;28;20024;-75
2022/09/28 14:00:58;;;;;;;4.18;2.38;;;;;;;;;;5041603;28;20030;-77
2022/09/28 14:03:24;;;;;;;5.43;3.28;;;;;;;;;;5039764;28;20433;-78
2022/09/28 14:05:59;;;;;;;2.20;1.60;;;;;;;;;;5041012;28;20032;-81
2022/09/28 14:08:32;;;;;;;7.28;2.40;;;;;;;;;;5035466;28;20460;-77
2022/09/28 14:11:18;;;;;;;2.72;1.90;;;;;;;;;;5020837;28;20021;-78
2022/09/28 14:13:43;;;;;;;6.20;1.70;;;;;;;;;;5022406;28;20082;-80
2022/09/28 14:16:32;;;;;;;3.15;1.83;;;;;;;;;;5023250;28;20029;-79
2022/09/28 14:19:00;;;;;;;2.63;1.47;;;;;;;;;;5024565;28;20033;-79
2022/09/28 14:21:44;;;;;;;2.72;1.30;;;;;;;;;;5042011;28;20028;-80
2022/09/28 14:24:09;;;;;;;6.05;2.95;;;;;;;;;;5038280;28;20067;-79
2022/09/28 14:26:54;;;;;;;12.15;6.97;;;;;;;;;;5040488;28;20009;-78
2022/09/28 14:29:27;;;;;;;4.00;2.50;;;;;;;;;;5034619;28;20028;-78
2022/09/28 14:32:13;;;;;;;1.98;1.42;;;;;;;;;;5030163;28;20021;-81
2022/09/28 14:34:38;;;;;;;1.98;1.20;;;;;;;;;;5023065;28;20685;-78
2022/09/28 14:43:03;;;;;;;4.75;2.75;;;;;;;;;;5035482;28;20035;-80
2022/09/28 14:45:36;;;;;;;3.70;2.00;;;;;;;;;;5052465;28;20079;-79
2022/09/28 14:48:03;;;;;;;5.32;2.20;;;;;;;;;;5060192;28;20043;-80
2022/09/28 14:50:29;;;;;;;3.35;1.92;;;;;;;;;;5053014;28;20471;-78
2022/09/28 14:53:03;;;;;;;8.88;5.32;;;;;;;;;;5038725;28;20032;-78
2022/09/28 14:55:30;;;;;;;5.13;2.78;;;;;;;;;;5041972;28;20020;-80
2022/09/28 14:57:57;;;;;;;5.15;2.67;;;;;;;;;;5041326;28;20029;-79
2022/09/28 15:00:24;;;;;;;6.10;3.13;;;;;;;;;;5042556;28;20289;-78
2022/09/28 15:02:51;;;;;;;6.10;3.92;;;;;;;;;;5039928;28;20669;-78